Time;durP1;ratioP1;P1;durP2;ratioP2;P2;SDS_P1;SDS_P2;PMS_P1;PMS_P2;Temp;Humidity;BMP_temperature;BMP_pressure;BME280_temperature;BME280_humidity;BME280_pressure;Samples;Min_cycle;Max_cycle;Signal;HPM_P1;HPM_P2
2023/06/16 00:00:37;;;;;;;4.80;4.40;;;;;;;17.00;74.67;98644.81;4145593;28;20252;-51
2023/06/16 00:02:43;;;;;;;8.13;3.88;;;;;;;16.61;76.52;98643.97;4168935;28;20224;-50
2023/06/16 00:04:49;;;;;;;4.22;3.80;;;;;;;16.70;75.67;98646.97;4160010;28;20654;-48
2023/06/16 00:06:52;;;;;;;4.50;4.10;;;;;;;16.66;75.41;98641.19;4169061;28;20267;-49
2023/06/16 00:08:54;;;;;;;5.30;4.80;;;;;;;16.73;75.18;98629.81;4145634;28;20209;-48
2023/06/16 00:10:56;;;;;;;5.28;4.88;;;;;;;16.63;74.90;98636.22;4147062;28;20233;-50
2023/06/16 00:12:58;;;;;;;6.05;4.30;;;;;;;16.61;74.77;98632.91;4151397;28;20310;-48
2023/06/16 00:15:00;;;;;;;5.30;4.88;;;;;;;16.47;74.90;98629.13;4144428;28;20232;-50
2023/06/16 00:17:03;;;;;;;5.28;4.88;;;;;;;16.51;74.73;98627.47;4146088;28;20208;-49
2023/06/16 00:19:05;;;;;;;4.88;4.47;;;;;;;16.54;74.82;98637.94;4135701;28;20596;-49
2023/06/16 00:21:09;;;;;;;4.20;3.90;;;;;;;16.59;74.55;98634.31;4137399;28;20209;-49
2023/06/16 00:23:16;;;;;;;5.32;4.93;;;;;;;16.56;74.77;98640.44;4140047;28;20245;-48
2023/06/16 00:25:18;;;;;;;4.95;4.50;;;;;;;16.58;75.17;98632.66;4136650;28;20320;-48
2023/06/16 00:27:23;;;;;;;4.18;3.78;;;;;;;16.54;75.00;98640.69;4166905;28;20319;-49
2023/06/16 00:29:24;;;;;;;4.55;4.15;;;;;;;16.56;75.30;98641.22;4168788;28;20284;-49
2023/06/16 00:31:26;;;;;;;3.92;3.63;;;;;;;16.56;75.90;98638.47;4136598;28;20770;-49
2023/06/16 00:33:28;;;;;;;3.80;3.30;;;;;;;16.43;76.27;98636.34;4144786;28;20212;-49
2023/06/16 00:35:30;;;;;;;4.30;4.00;;;;;;;16.32;76.68;98633.88;4143821;28;20271;-49
2023/06/16 00:37:31;;;;;;;4.35;3.95;;;;;;;16.22;76.84;98634.75;4167289;28;20255;-49
2023/06/16 00:39:33;;;;;;;4.38;3.83;;;;;;;16.23;76.60;98636.41;4145048;28;20206;-49
2023/06/16 00:41:35;;;;;;;5.05;4.53;;;;;;;16.22;76.66;98634.75;4142104;28;20229;-49
2023/06/16 00:43:37;;;;;;;5.63;5.20;;;;;;;16.19;76.79;98629.81;4144290;28;20243;-49
2023/06/16 00:45:38;;;;;;;5.70;4.65;;;;;;;16.16;77.29;98626.78;4154556;28;20572;-50
2023/06/16 00:47:40;;;;;;;4.88;4.43;;;;;;;16.16;77.26;98629.56;4168883;28;20567;-50
2023/06/16 00:49:43;;;;;;;4.45;4.10;;;;;;;16.15;77.72;98625.97;4153317;28;20639;-49
2023/06/16 00:51:45;;;;;;;4.57;4.18;;;;;;;16.13;77.64;98630.94;4138821;28;20741;-49
2023/06/16 00:53:47;;;;;;;4.60;4.20;;;;;;;16.08;77.41;98622.69;4127275;28;20214;-49
2023/06/16 00:55:50;;;;;;;4.53;4.13;;;;;;;16.07;77.47;98621.03;4139186;28;20220;-49
2023/06/16 00:57:55;;;;;;;4.55;4.25;;;;;;;16.02;77.92;98626.56;4149492;28;20997;-49
2023/06/16 00:59:57;;;;;;;4.53;4.10;;;;;;;16.00;78.32;98630.72;4142839;28;20209;-50
2023/06/16 01:01:58;;;;;;;4.53;4.13;;;;;;;15.95;78.81;98623.28;4153075;28;20258;-49
2023/06/16 01:04:01;;;;;;;4.68;4.25;;;;;;;15.86;79.26;98621.38;4143856;28;20421;-49
2023/06/16 01:06:09;;;;;;;4.60;3.92;;;;;;;15.76;79.35;98630.50;4154129;28;20369;-49
2023/06/16 01:08:23;;;;;;;4.57;4.18;;;;;;;15.72;79.56;98628.59;4130427;28;20213;-49
2023/06/16 01:10:33;;;;;;;4.03;3.75;;;;;;;15.75;79.66;98628.88;4152225;28;20534;-49
2023/06/16 01:12:42;;;;;;;4.63;4.20;;;;;;;15.69;79.84;98631.94;4134837;28;20275;-49
2023/06/16 01:14:47;;;;;;;4.47;4.05;;;;;;;15.66;79.70;98627.81;4138378;28;20229;-49
2023/06/16 01:16:51;;;;;;;4.93;4.57;;;;;;;15.61;79.93;98625.03;4140189;28;20201;-48
2023/06/16 01:18:54;;;;;;;4.65;4.35;;;;;;;15.62;80.56;98632.22;4169219;28;20212;-49
2023/06/16 01:21:37;;;;;;;4.80;4.40;;;;;;;15.57;80.59;98625.88;4153433;28;20312;-49
2023/06/16 01:23:56;;;;;;;4.70;4.30;;;;;;;15.48;80.24;98633.91;4090139;28;20211;-48
2023/06/16 01:26:01;;;;;;;4.45;4.15;;;;;;;15.46;80.69;98630.59;4106055;28;20257;-49
2023/06/16 01:28:05;;;;;;;5.38;4.90;;;;;;;15.42;80.71;98629.50;4100957;28;20208;-50
2023/06/16 01:30:10;;;;;;;5.70;4.60;;;;;;;15.42;80.53;98623.97;4151418;28;20215;-49
2023/06/16 01:32:12;;;;;;;5.80;4.95;;;;;;;15.40;80.48;98634.47;4128141;28;20305;-48
2023/06/16 01:34:14;;;;;;;4.65;4.25;;;;;;;15.42;80.23;98629.50;4152610;28;20310;-49
2023/06/16 01:36:16;;;;;;;4.68;4.28;;;;;;;15.35;80.37;98628.94;4154476;28;20208;-49
2023/06/16 01:38:19;;;;;;;5.00;4.60;;;;;;;15.34;80.58;98621.78;4144074;28;20678;-49
2023/06/16 01:40:21;;;;;;;5.70;4.47;;;;;;;15.37;80.50;98631.44;4137153;28;20214;-49
2023/06/16 01:42:23;;;;;;;5.05;4.55;;;;;;;15.31;80.53;98627.81;4139304;28;20209;-49
2023/06/16 01:44:30;;;;;;;4.97;4.65;;;;;;;15.28;80.88;98628.38;4168164;28;20235;-48
2023/06/16 01:46:32;;;;;;;4.78;4.32;;;;;;;15.19;81.67;98627.28;4169780;28;20669;-49
2023/06/16 01:48:34;;;;;;;4.88;4.47;;;;;;;15.10;81.83;98631.69;4140263;28;20205;-48
2023/06/16 01:50:36;;;;;;;6.95;4.95;;;;;;;15.09;81.77;98624.53;4140103;28;20206;-48
2023/06/16 01:52:38;;;;;;;5.38;4.35;;;;;;;15.10;81.88;98630.88;4129192;28;20210;-49
2023/06/16 01:54:40;;;;;;;5.00;4.60;;;;;;;15.08;81.94;98633.91;4136768;28;20666;-49
2023/06/16 01:56:42;;;;;;;4.80;4.40;;;;;;;15.06;81.75;98629.78;4142137;28;20610;-49
2023/06/16 01:58:44;;;;;;;5.45;5.05;;;;;;;15.07;81.71;98635.00;4168474;28;20208;-49
2023/06/16 02:00:51;;;;;;;5.70;5.03;;;;;;;15.08;81.72;98628.41;4130621;28;20206;-49
2023/06/16 02:03:02;;;;;;;4.82;4.43;;;;;;;15.05;81.96;98628.13;4170824;28;20259;-49
2023/06/16 02:05:05;;;;;;;4.47;4.18;;;;;;;15.01;82.31;98625.09;4154490;28;20232;-49
2023/06/16 02:07:11;;;;;;;5.18;4.78;;;;;;;15.00;82.36;98631.72;4154334;28;20259;-49
2023/06/16 02:09:16;;;;;;;5.90;5.18;;;;;;;14.94;82.45;98630.06;4152289;28;20206;-49
2023/06/16 02:11:18;;;;;;;7.80;5.30;;;;;;;14.87;82.91;98625.91;4172786;28;20264;-50
2023/06/16 02:13:20;;;;;;;7.20;5.03;;;;;;;14.99;82.68;98630.06;4146287;28;20225;-49
2023/06/16 02:15:22;;;;;;;9.90;5.50;;;;;;;14.84;82.72;98632.78;4138313;28;20234;-48
2023/06/16 02:17:26;;;;;;;5.15;4.65;;;;;;;14.87;82.87;98635.00;4153937;28;20204;-49
2023/06/16 02:19:28;;;;;;;5.22;4.82;;;;;;;14.69;83.32;98634.72;4170756;28;20219;-49
2023/06/16 02:21:30;;;;;;;4.40;4.10;;;;;;;14.63;83.34;98636.63;4144920;28;20206;-49
2023/06/16 02:23:32;;;;;;;5.10;4.80;;;;;;;14.63;83.16;98631.13;4141636;28;20260;-51
2023/06/16 02:25:33;;;;;;;5.82;5.32;;;;;;;14.64;83.00;98632.75;4135805;28;20226;-49
2023/06/16 02:27:35;;;;;;;5.72;5.22;;;;;;;14.65;83.18;98628.94;4170622;28;20212;-50
2023/06/16 02:29:37;;;;;;;5.75;5.30;;;;;;;14.64;83.12;98635.50;4136959;28;20570;-49
2023/06/16 02:31:38;;;;;;;5.90;5.40;;;;;;;14.60;83.49;98641.84;4172142;28;20216;-49
2023/06/16 02:33:40;;;;;;;6.03;5.07;;;;;;;14.57;83.17;98637.72;4170083;28;20728;-49
2023/06/16 02:35:42;;;;;;;4.85;4.53;;;;;;;14.65;83.13;98648.22;4145470;28;20283;-49
2023/06/16 02:37:51;;;;;;;5.57;5.18;;;;;;;14.66;83.05;98641.59;4128161;28;20322;-50
2023/06/16 02:39:53;;;;;;;5.82;5.35;;;;;;;14.63;83.64;98641.31;4168899;28;20211;-50
2023/06/16 02:41:55;;;;;;;5.03;4.63;;;;;;;14.57;83.37;98642.41;4139467;28;20209;-51
2023/06/16 02:43:56;;;;;;;8.40;5.15;;;;;;;14.58;83.33;98636.59;4136999;28;20255;-48
2023/06/16 02:45:59;;;;;;;4.93;4.53;;;;;;;14.58;83.61;98633.84;4144523;28;20205;-49
2023/06/16 02:48:01;;;;;;;6.07;5.57;;;;;;;14.60;83.70;98644.59;4169865;28;20694;-50
2023/06/16 02:50:03;;;;;;;5.43;4.97;;;;;;;14.52;83.86;98634.13;4140643;28;20222;-50
2023/06/16 02:52:05;;;;;;;5.63;5.13;;;;;;;14.44;83.75;98643.75;4152452;28;20264;-49
2023/06/16 02:54:07;;;;;;;5.55;5.15;;;;;;;14.36;84.12;98632.44;4136817;28;20230;-50
2023/06/16 02:56:10;;;;;;;5.65;5.15;;;;;;;14.39;84.28;98634.66;4168283;28;20213;-49
2023/06/16 02:58:15;;;;;;;6.13;4.68;;;;;;;14.39;84.07;98627.22;4145211;28;20256;-49
2023/06/16 03:00:18;;;;;;;4.75;4.35;;;;;;;14.38;84.19;98639.31;4145184;28;20202;-49
2023/06/16 03:02:20;;;;;;;5.35;4.95;;;;;;;14.37;84.00;98634.91;4171004;28;20204;-49
2023/06/16 03:04:21;;;;;;;6.22;5.72;;;;;;;14.36;84.20;98635.22;4136434;28;20753;-49
2023/06/16 03:06:23;;;;;;;5.85;5.45;;;;;;;14.35;84.30;98642.63;4140217;28;20304;-49
2023/06/16 03:08:26;;;;;;;5.53;5.10;;;;;;;14.27;84.56;98634.91;4121658;28;20250;-50
2023/06/16 03:10:28;;;;;;;6.22;5.63;;;;;;;14.30;84.65;98636.28;4156016;28;20215;-50
2023/06/16 03:12:29;;;;;;;5.32;4.82;;;;;;;14.34;84.13;98638.22;4138230;28;20225;-51
2023/06/16 03:14:32;;;;;;;6.00;5.50;;;;;;;14.36;83.97;98636.00;4132389;28;20233;-50
2023/06/16 03:16:33;;;;;;;6.72;6.13;;;;;;;14.32;83.67;98640.44;4169828;28;20219;-50
2023/06/16 03:18:35;;;;;;;5.97;5.47;;;;;;;14.21;83.68;98633.22;4160185;28;20264;-50
2023/06/16 03:20:37;;;;;;;6.57;5.10;;;;;;;14.18;83.73;98638.41;4144365;28;20211;-49
2023/06/16 03:22:39;;;;;;;6.50;5.25;;;;;;;14.13;84.34;98641.13;4144771;28;20205;-50
2023/06/16 03:24:44;;;;;;;5.72;5.32;;;;;;;14.10;83.92;98641.69;4145585;28;20229;-49
2023/06/16 03:26:46;;;;;;;5.65;5.22;;;;;;;14.01;84.30;98638.63;4155414;28;20777;-50
2023/06/16 03:28:48;;;;;;;5.75;5.25;;;;;;;14.00;84.49;98644.38;4152242;28;20204;-49
2023/06/16 03:30:52;;;;;;;6.53;6.03;;;;;;;14.03;84.66;98641.91;4144049;28;20240;-50
2023/06/16 03:32:55;;;;;;;7.68;4.93;;;;;;;14.03;84.65;98641.13;4137507;28;20248;-48
2023/06/16 03:34:57;;;;;;;5.28;4.78;;;;;;;14.00;84.29;98642.47;4137217;28;20233;-49
2023/06/16 03:36:59;;;;;;;6.32;5.93;;;;;;;13.99;84.42;98646.31;4135981;28;20209;-50
2023/06/16 03:39:00;;;;;;;5.68;5.25;;;;;;;13.98;84.57;98638.34;4139438;28;20599;-50
2023/06/16 03:41:02;;;;;;;7.20;6.60;;;;;;;13.90;84.99;98647.09;4160947;28;20209;-49
2023/06/16 03:43:04;;;;;;;5.75;5.25;;;;;;;13.89;85.01;98646.28;4151944;28;20216;-49
2023/06/16 03:45:06;;;;;;;5.65;5.25;;;;;;;13.91;84.79;98641.31;4169575;28;20267;-49
2023/06/16 03:47:08;;;;;;;5.57;5.18;;;;;;;13.94;85.01;98648.22;4170793;28;20696;-49
2023/06/16 03:49:10;;;;;;;4.88;4.47;;;;;;;13.90;84.83;98647.91;4153567;28;20209;-49
2023/06/16 03:51:13;;;;;;;6.88;5.45;;;;;;;13.93;84.81;98650.16;4140455;28;20646;-50
2023/06/16 03:53:15;;;;;;;8.77;5.63;;;;;;;13.90;84.72;98653.41;4144063;28;20225;-50
2023/06/16 03:55:19;;;;;;;5.47;5.07;;;;;;;13.85;84.64;98661.66;4143091;28;20284;-48
2023/06/16 03:57:21;;;;;;;5.43;5.03;;;;;;;13.80;84.19;98653.38;4137372;28;20206;-49
2023/06/16 03:59:22;;;;;;;6.18;5.63;;;;;;;13.78;84.64;98654.75;4164225;28;20752;-49
2023/06/16 04:01:24;;;;;;;5.35;4.85;;;;;;;13.73;84.79;98655.53;4144624;28;20544;-50
2023/06/16 04:03:26;;;;;;;5.85;5.38;;;;;;;13.72;84.81;98655.81;4136795;28;20289;-49
2023/06/16 04:05:29;;;;;;;5.85;5.45;;;;;;;13.75;85.01;98656.09;4138346;28;20580;-49
2023/06/16 04:07:31;;;;;;;6.07;5.68;;;;;;;13.75;85.24;98658.84;4170653;28;20308;-50
2023/06/16 04:09:33;;;;;;;5.95;5.30;;;;;;;13.76;85.41;98662.44;4141693;28;20689;-49
2023/06/16 04:11:40;;;;;;;5.65;5.15;;;;;;;13.74;85.82;98659.94;4137983;28;20216;-49
2023/06/16 04:13:41;;;;;;;6.43;5.15;;;;;;;13.75;85.72;98667.09;4143162;28;20654;-49
2023/06/16 04:15:43;;;;;;;5.47;5.03;;;;;;;13.73;85.83;98663.81;4136254;28;20206;-49
2023/06/16 04:17:45;;;;;;;5.78;5.22;;;;;;;13.75;85.59;98656.09;4140297;28;20631;-50
2023/06/16 04:19:47;;;;;;;5.82;5.32;;;;;;;13.74;85.72;98659.94;4166966;28;20216;-48
2023/06/16 04:21:49;;;;;;;5.43;5.00;;;;;;;13.79;85.93;98654.47;4143211;28;20674;-49
2023/06/16 04:23:51;;;;;;;6.10;5.60;;;;;;;13.83;86.06;98668.53;4140936;28;20943;-48
2023/06/16 04:25:53;;;;;;;5.13;4.72;;;;;;;13.86;86.16;98663.31;4123145;28;20232;-49
2023/06/16 04:27:57;;;;;;;6.50;6.00;;;;;;;13.85;86.12;98667.19;4133781;28;20719;-50
2023/06/16 04:30:03;;;;;;;4.93;4.53;;;;;;;13.84;86.29;98670.19;4136815;28;20723;-50
2023/06/16 04:32:05;;;;;;;5.40;4.95;;;;;;;13.85;86.24;98672.69;4142360;28;20291;-50
2023/06/16 04:34:10;;;;;;;6.85;5.57;;;;;;;13.84;86.67;98660.00;4149396;28;20232;-49
2023/06/16 04:36:13;;;;;;;5.28;4.88;;;;;;;13.87;86.46;98667.72;4137305;28;20215;-49
2023/06/16 04:38:15;;;;;;;5.90;5.45;;;;;;;13.91;86.60;98666.06;4141322;28;20663;-50
2023/06/16 04:40:17;;;;;;;5.35;4.95;;;;;;;13.99;86.45;98657.34;4144725;28;20236;-49
2023/06/16 04:42:18;;;;;;;8.18;6.43;;;;;;;14.00;86.43;98658.16;4148648;28;20205;-49
2023/06/16 04:44:20;;;;;;;6.22;5.70;;;;;;;14.03;85.99;98655.69;4142208;28;20222;-48
2023/06/16 04:46:22;;;;;;;6.45;5.95;;;;;;;14.09;86.26;98657.38;4144356;28;20217;-49
2023/06/16 04:48:25;;;;;;;5.60;5.20;;;;;;;14.14;86.49;98660.16;4144360;28;20271;-48
2023/06/16 04:50:27;;;;;;;6.05;5.55;;;;;;;14.17;86.22;98658.78;4144029;28;20208;-49
2023/06/16 04:52:30;;;;;;;6.25;5.68;;;;;;;14.22;86.28;98656.91;4142018;28;20237;-49
2023/06/16 04:54:32;;;;;;;6.63;6.03;;;;;;;14.24;86.09;98654.69;4151921;28;20239;-49
2023/06/16 04:56:33;;;;;;;6.55;5.95;;;;;;;14.31;85.98;98660.78;4143815;28;20213;-49
2023/06/16 04:58:35;;;;;;;6.30;5.82;;;;;;;13.83;89.13;98663.84;4150631;28;20205;-50
2023/06/16 05:00:40;;;;;;;8.07;6.15;;;;;;;14.02;88.02;98659.53;4168957;28;20215;-49
2023/06/16 05:02:42;;;;;;;6.80;6.20;;;;;;;14.09;87.41;98660.13;4139553;28;20280;-49
2023/06/16 05:04:43;;;;;;;5.90;5.40;;;;;;;14.18;87.46;98654.94;4149560;28;20224;-50
2023/06/16 05:06:46;;;;;;;6.97;6.28;;;;;;;14.30;86.64;98661.88;4141418;28;20210;-49
2023/06/16 05:08:49;;;;;;;5.78;5.38;;;;;;;14.37;85.81;98665.19;4136997;28;20209;-49
2023/06/16 05:10:51;;;;;;;5.85;5.40;;;;;;;14.39;85.54;98657.50;4143604;28;20227;-48
2023/06/16 05:12:53;;;;;;;8.43;6.63;;;;;;;14.47;85.01;98662.50;4167584;28;20236;-48
2023/06/16 05:14:55;;;;;;;6.18;5.70;;;;;;;14.65;84.15;98662.00;4142518;28;20283;-49
2023/06/16 05:17:00;;;;;;;8.32;6.32;;;;;;;14.49;84.67;98665.78;4126804;28;20298;-49
2023/06/16 05:19:01;;;;;;;6.90;6.22;;;;;;;14.26;85.91;98657.19;4137683;28;20214;-49
2023/06/16 05:21:03;;;;;;;6.78;6.03;;;;;;;14.42;85.42;98656.97;4170626;28;20631;-50
2023/06/16 05:23:05;;;;;;;5.90;5.40;;;;;;;14.57;84.47;98659.75;4172605;28;20209;-48
2023/06/16 05:25:07;;;;;;;6.88;5.25;;;;;;;14.76;83.65;98663.63;4143650;28;20276;-50
2023/06/16 05:27:09;;;;;;;6.80;5.45;;;;;;;14.91;83.86;98669.16;4167435;28;20728;-49
2023/06/16 05:29:11;;;;;;;5.00;4.53;;;;;;;15.06;82.79;98669.19;4152073;28;20205;-49
2023/06/16 05:31:13;;;;;;;9.93;5.05;;;;;;;15.25;82.45;98667.56;4136879;28;20244;-49
2023/06/16 05:33:15;;;;;;;5.00;4.55;;;;;;;15.27;83.64;98668.09;4134687;28;20308;-50
2023/06/16 05:35:16;;;;;;;6.82;6.22;;;;;;;15.18;83.58;98667.00;4139175;28;20287;-51
2023/06/16 05:37:19;;;;;;;6.90;6.30;;;;;;;14.99;84.98;98668.66;4136454;28;20272;-50
2023/06/16 05:39:21;;;;;;;13.77;5.95;;;;;;;15.13;84.95;98672.50;4147756;28;20271;-48
2023/06/16 05:41:24;;;;;;;6.75;6.20;;;;;;;15.44;84.95;98667.84;4139588;28;20213;-49
2023/06/16 05:43:26;;;;;;;6.13;5.55;;;;;;;15.67;84.32;98668.06;4146804;28;20292;-49
2023/06/16 05:45:28;;;;;;;9.73;6.20;;;;;;;15.84;83.98;98676.84;4140605;28;20276;-48
2023/06/16 05:47:29;;;;;;;7.35;6.75;;;;;;;15.92;82.56;98673.53;4138804;28;20200;-49
2023/06/16 05:49:31;;;;;;;5.60;4.85;;;;;;;16.24;82.29;98671.19;4167709;28;20215;-49
2023/06/16 05:51:33;;;;;;;5.85;5.35;;;;;;;16.53;80.75;98669.44;4144785;28;20264;-49
2023/06/16 05:53:35;;;;;;;9.82;7.00;;;;;;;16.69;81.21;98673.75;4170346;28;20208;-50
2023/06/16 05:55:36;;;;;;;5.55;5.15;;;;;;;16.87;80.71;98675.88;4140928;28;20271;-49
2023/06/16 05:57:38;;;;;;;6.18;5.57;;;;;;;17.16;79.31;98679.53;4171969;28;20257;-50
2023/06/16 05:59:40;;;;;;;6.40;5.90;;;;;;;17.31;77.62;98688.53;4146549;28;20316;-50
2023/06/16 06:01:42;;;;;;;7.75;5.43;;;;;;;17.47;76.42;98680.97;4141105;28;20209;-50
2023/06/16 06:03:47;;;;;;;9.70;5.57;;;;;;;17.67;75.87;98680.78;4138445;28;20328;-50
2023/06/16 06:05:49;;;;;;;8.50;5.82;;;;;;;17.68;76.69;98682.41;4138006;28;20672;-50
2023/06/16 06:07:51;;;;;;;7.13;5.43;;;;;;;17.74;75.03;98689.56;4143960;28;20216;-49
2023/06/16 06:09:54;;;;;;;6.40;5.80;;;;;;;17.93;75.89;98685.75;4138613;28;20233;-49
2023/06/16 06:11:55;;;;;;;5.25;4.75;;;;;;;18.03;74.36;98691.19;4140557;28;20687;-50
2023/06/16 06:13:57;;;;;;;6.55;4.75;;;;;;;18.23;74.53;98695.66;4137946;28;20725;-49
2023/06/16 06:16:01;;;;;;;7.63;5.43;;;;;;;18.39;73.46;98699.94;4138428;28;20233;-51
2023/06/16 06:18:03;;;;;;;5.97;5.35;;;;;;;18.55;72.77;98693.91;4155231;28;20271;-48
2023/06/16 06:20:05;;;;;;;10.98;5.15;;;;;;;18.44;71.85;98702.66;4147098;28;20213;-49
2023/06/16 06:22:07;;;;;;;5.03;4.60;;;;;;;18.46;71.85;98705.97;4141071;28;20260;-48
2023/06/16 06:24:08;;;;;;;6.07;5.40;;;;;;;18.02;71.18;98710.84;4140049;28;20258;-49
2023/06/16 06:26:10;;;;;;;6.25;5.75;;;;;;;18.06;71.65;98711.94;4141884;28;20209;-49
2023/06/16 06:28:12;;;;;;;6.80;5.50;;;;;;;18.28;70.56;98715.00;4129364;28;20212;-48
2023/06/16 06:30:13;;;;;;;7.13;4.68;;;;;;;18.21;69.35;98709.00;4155216;28;20218;-49
2023/06/16 06:32:15;;;;;;;5.95;5.45;;;;;;;18.08;68.92;98706.91;4145817;28;20812;-49
2023/06/16 06:34:17;;;;;;;6.28;4.72;;;;;;;17.96;70.02;98712.03;4137663;28;20240;-49
2023/06/16 06:36:23;;;;;;;5.15;4.60;;;;;;;18.15;68.70;98704.63;4168792;28;20214;-50
2023/06/16 06:38:25;;;;;;;7.13;4.90;;;;;;;18.21;69.42;98703.44;4170251;28;20213;-49
2023/06/16 06:40:27;;;;;;;6.55;5.75;;;;;;;18.59;69.01;98694.97;4138154;28;20210;-50
2023/06/16 06:42:29;;;;;;;5.22;4.50;;;;;;;18.91;67.36;98713.69;4157535;28;20239;-50
2023/06/16 06:44:31;;;;;;;5.60;5.10;;;;;;;19.04;66.61;98707.38;4143402;28;20645;-50
2023/06/16 06:46:34;;;;;;;5.40;4.90;;;;;;;19.25;65.11;98708.75;4171210;28;20310;-49
2023/06/16 06:48:36;;;;;;;5.25;4.75;;;;;;;19.72;64.65;98711.31;4137371;28;20208;-48
2023/06/16 06:50:37;;;;;;;4.65;4.25;;;;;;;20.03;62.35;98713.22;4151933;28;20208;-49
2023/06/16 06:52:40;;;;;;;7.53;4.57;;;;;;;19.86;63.93;98715.75;4139940;28;20291;-49
2023/06/16 06:54:41;;;;;;;3.97;3.65;;;;;;;20.28;62.47;98718.34;4137372;28;20229;-48
2023/06/16 06:56:43;;;;;;;6.53;4.82;;;;;;;20.42;61.58;98721.09;4143536;28;20256;-49
2023/06/16 06:58:45;;;;;;;4.75;4.35;;;;;;;20.60;60.37;98720.19;4126196;28;20212;-48
2023/06/16 07:00:47;;;;;;;4.03;3.70;;;;;;;20.79;60.32;98720.91;4138722;28;20744;-49
2023/06/16 07:02:48;;;;;;;4.15;3.75;;;;;;;20.52;58.76;98718.94;4126695;28;20201;-49
2023/06/16 07:04:50;;;;;;;7.45;3.80;;;;;;;20.69;59.73;98726.66;4141966;28;20229;-48
2023/06/16 07:06:53;;;;;;;4.78;3.13;;;;;;;21.19;59.63;98725.59;4142417;28;20217;-49
2023/06/16 07:08:54;;;;;;;4.13;3.63;;;;;;;21.49;57.92;98733.22;4140613;28;20216;-50
2023/06/16 07:10:59;;;;;;;3.83;3.53;;;;;;;21.51;57.41;98731.75;4139632;28;20213;-50
2023/06/16 07:13:01;;;;;;;9.45;4.43;;;;;;;21.58;56.09;98742.47;4141120;28;20685;-49
2023/06/16 07:15:05;;;;;;;3.75;3.28;;;;;;;21.40;55.70;98735.09;4145446;28;20233;-49
2023/06/16 07:17:07;;;;;;;3.95;3.53;;;;;;;21.48;55.38;98726.81;4152037;28;20236;-49
2023/06/16 07:19:08;;;;;;;7.70;3.75;;;;;;;21.53;55.64;98735.06;4141685;28;20759;-49
2023/06/16 07:21:10;;;;;;;5.47;4.00;;;;;;;21.48;54.36;98731.56;4138062;28;20213;-49
2023/06/16 07:23:12;;;;;;;4.28;3.17;;;;;;;21.86;55.53;98733.72;4169766;28;20203;-49
2023/06/16 07:25:15;;;;;;;8.65;4.00;;;;;;;21.87;55.71;98737.31;4140538;28;20237;-49
2023/06/16 07:27:20;;;;;;;4.88;4.47;;;;;;;22.11;53.97;98740.59;4156357;28;20279;-49
2023/06/16 07:29:22;;;;;;;4.47;4.05;;;;;;;22.11;53.01;98743.38;4154791;28;20663;-50
2023/06/16 07:31:24;;;;;;;4.03;3.63;;;;;;;22.15;53.55;98741.56;4137964;28;20613;-49
2023/06/16 07:33:26;;;;;;;4.10;3.65;;;;;;;22.28;53.29;98746.25;4168765;28;20274;-49
2023/06/16 07:35:28;;;;;;;4.10;3.20;;;;;;;21.97;51.49;98737.06;4170460;28;20231;-50
2023/06/16 07:37:30;;;;;;;3.45;3.25;;;;;;;22.50;53.37;98737.88;4137872;28;20210;-49
2023/06/16 07:39:31;;;;;;;24.50;3.63;;;;;;;22.92;52.66;98742.75;4151403;28;20644;-49
2023/06/16 07:41:33;;;;;;;3.83;3.50;;;;;;;23.13;52.33;98729.81;4137948;28;20737;-49
2023/06/16 07:43:35;;;;;;;3.30;3.00;;;;;;;23.35;51.17;98735.28;4141826;28;20204;-49
2023/06/16 07:45:37;;;;;;;3.17;2.88;;;;;;;23.14;47.80;98725.88;4136295;28;20224;-49
2023/06/16 07:47:42;;;;;;;5.00;3.33;;;;;;;22.88;47.93;98738.97;4151684;28;20254;-49
2023/06/16 07:49:44;;;;;;;4.07;3.78;;;;;;;22.57;49.02;98732.63;4139850;28;20227;-50
2023/06/16 07:51:46;;;;;;;5.15;3.55;;;;;;;22.68;48.98;98733.97;4143834;28;20236;-49
2023/06/16 07:53:50;;;;;;;4.03;3.60;;;;;;;22.95;49.78;98733.72;4153400;28;20270;-48
2023/06/16 07:55:52;;;;;;;4.50;3.03;;;;;;;23.53;49.05;98731.38;4141434;28;20209;-50
2023/06/16 07:57:54;;;;;;;4.28;3.90;;;;;;;23.60;45.68;98724.16;4138270;28;20298;-49
2023/06/16 07:59:56;;;;;;;3.47;2.55;;;;;;;22.96;47.15;98735.41;4166818;28;20203;-49
2023/06/16 08:01:57;;;;;;;3.58;3.28;;;;;;;23.24;46.34;98722.81;4139901;28;20240;-50
2023/06/16 08:03:59;;;;;;;4.05;3.33;;;;;;;23.37;46.23;98730.22;4140990;28;20209;-49
2023/06/16 08:06:02;;;;;;;4.95;3.13;;;;;;;23.34;46.04;98725.28;4142459;28;20251;-50
2023/06/16 08:08:04;;;;;;;4.82;4.35;;;;;;;23.55;45.63;98718.72;4139211;28;21196;-48
2023/06/16 08:10:10;;;;;;;6.70;3.22;;;;;;;23.63;45.62;98722.66;4169215;28;20209;-50
2023/06/16 08:12:16;;;;;;;5.47;2.97;;;;;;;23.71;45.63;98719.03;4153308;28;20562;-50
2023/06/16 08:14:18;;;;;;;6.30;3.10;;;;;;;23.64;45.76;98724.31;4144881;28;20290;-50
2023/06/16 08:16:20;;;;;;;4.35;3.40;;;;;;;23.58;45.60;98720.03;4136585;28;20303;-51
2023/06/16 08:18:22;;;;;;;5.82;2.90;;;;;;;24.37;46.76;98722.03;4135059;28;20251;-49
2023/06/16 08:20:25;;;;;;;4.13;2.92;;;;;;;24.97;45.79;98720.63;4136702;28;20258;-49
2023/06/16 08:22:27;;;;;;;4.78;3.03;;;;;;;25.30;45.03;98712.34;4126604;28;20247;-49
2023/06/16 08:24:30;;;;;;;2.70;2.50;;;;;;;25.56;43.50;98727.00;4170846;28;20262;-49
2023/06/16 08:26:32;;;;;;;3.67;2.78;;;;;;;25.42;42.32;98718.88;4141683;28;20306;-48
2023/06/16 08:28:34;;;;;;;3.05;2.75;;;;;;;25.03;42.49;98718.44;4166266;28;20208;-49
2023/06/16 08:30:36;;;;;;;6.88;2.60;;;;;;;24.94;43.10;98721.28;4134523;28;20205;-49
2023/06/16 08:32:38;;;;;;;10.00;3.20;;;;;;;25.68;43.14;98713.88;4140870;28;20216;-48
2023/06/16 08:34:43;;;;;;;3.78;3.38;;;;;;;25.67;41.62;98717.81;4138927;28;20279;-49
2023/06/16 08:36:45;;;;;;;3.97;2.78;;;;;;;25.34;41.51;98707.72;4165611;28;20265;-50
2023/06/16 08:38:48;;;;;;;4.65;3.03;;;;;;;25.62;41.74;98711.59;4131778;28;20283;-48
2023/06/16 08:40:51;;;;;;;4.75;3.08;;;;;;;24.71;41.67;98705.94;4169179;28;20206;-49
2023/06/16 08:42:55;;;;;;;3.55;2.58;;;;;;;25.69;42.56;98709.91;4136173;28;21331;-49
2023/06/16 08:45:00;;;;;;;4.50;2.88;;;;;;;26.13;42.27;98711.94;4152767;28;20247;-50
2023/06/16 08:47:03;;;;;;;3.83;2.17;;;;;;;26.19;39.68;98710.56;4133950;28;20209;-49
2023/06/16 08:49:05;;;;;;;3.13;2.63;;;;;;;26.10;39.10;98711.81;4118717;28;20762;-50
2023/06/16 08:51:10;;;;;;;2.88;2.45;;;;;;;26.17;40.23;98704.47;4150203;28;20200;-49
2023/06/16 08:53:15;;;;;;;7.05;3.22;;;;;;;26.47;39.78;98719.97;4138715;28;20220;-49
2023/06/16 08:55:19;;;;;;;2.92;2.63;;;;;;;26.10;39.04;98714.63;4138216;28;20225;-50
2023/06/16 08:57:21;;;;;;;2.75;2.22;;;;;;;26.11;38.99;98716.25;4151232;28;20200;-49
2023/06/16 08:59:27;;;;;;;2.67;2.20;;;;;;;26.51;39.82;98704.06;4137590;28;20557;-49
2023/06/16 09:01:29;;;;;;;2.75;2.45;;;;;;;26.82;37.96;98709.16;4164830;28;20212;-49
2023/06/16 09:03:33;;;;;;;3.80;2.63;;;;;;;26.85;38.74;98706.47;4137855;28;20280;-51
2023/06/16 09:05:36;;;;;;;5.05;2.30;;;;;;;26.55;37.00;98705.06;4136206;28;20323;-49
2023/06/16 09:07:39;;;;;;;2.50;2.30;;;;;;;26.08;37.23;98697.31;4135622;28;20219;-49
2023/06/16 09:09:41;;;;;;;5.20;2.35;;;;;;;26.27;38.83;98704.03;4138492;28;20255;-49
2023/06/16 09:11:43;;;;;;;3.25;2.03;;;;;;;27.06;37.41;98707.16;4167966;28;20215;-49
2023/06/16 09:13:45;;;;;;;4.72;2.67;;;;;;;27.47;38.30;98698.41;4166672;28;20283;-49
2023/06/16 09:15:49;;;;;;;2.15;1.80;;;;;;;27.98;37.62;98696.75;4139369;28;20236;-50
2023/06/16 09:17:51;;;;;;;3.38;2.17;;;;;;;28.20;36.53;98705.41;4137253;28;20243;-50
2023/06/16 09:19:56;;;;;;;2.55;2.13;;;;;;;28.05;34.66;98708.22;4142171;28;20240;-50
2023/06/16 09:21:59;;;;;;;3.75;2.45;;;;;;;28.17;35.23;98696.88;4136349;28;21700;-48
2023/06/16 09:24:02;;;;;;;3.30;2.47;;;;;;;28.10;34.84;98705.13;4136415;28;20282;-49
2023/06/16 09:26:13;;;;;;;7.22;3.13;;;;;;;28.32;34.09;98707.34;4151243;28;20240;-49
2023/06/16 09:28:15;;;;;;;2.88;2.60;;;;;;;28.43;34.68;98706.50;4137012;28;20212;-49
2023/06/16 09:30:18;;;;;;;2.95;1.80;;;;;;;28.61;34.40;98699.31;4150414;28;20207;-49
2023/06/16 09:32:20;;;;;;;3.53;1.90;;;;;;;28.75;34.49;98701.66;4138882;28;20212;-49
2023/06/16 09:34:32;;;;;;;6.97;2.15;;;;;;;29.02;34.67;98692.31;4148573;28;20690;-50
2023/06/16 09:36:33;;;;;;;4.00;2.53;;;;;;;29.14;34.49;98690.22;4134428;28;20275;-50
2023/06/16 09:38:38;;;;;;;2.42;2.22;;;;;;;29.10;33.63;98675.19;4169758;28;20728;-49